メインページ
METAR-TAF:

METAR-TAF

空港 :

ローマ・フィウミチーノ, イタリア

フィウミチーノ空港

緯度: 41-48N, 経度: 012-14E, 海抜: 2m

現時点の気象観測

当レポートは31分前の11:20(UTC)に作成
西の風 10kt
気温 22°C
湿度 65%
気圧 1018 hPa
視程10km以上
1,500メートル以下は雲なし、積乱雲なし

METAR: LIRF 241120Z 26010KT CAVOK 22/15 Q1018 NOSIG

時間: 13:51 (11:51 UTC)

予報

当レポートは51分前の11:00(UTC)に作成
予報は24日の 12時(UTC)から 25日の 18時(UTC)まで有効
西の風 12kt
視程10km以上
1,500メートル以下は雲なし、積乱雲なし
24日の 18時(UTC)から 24日の 20時(UTC)まで徐々に
変向風 4kt
25日の 01時(UTC)から 25日の 05時(UTC)まで一時的に
視程: 4000m
25日の 08時(UTC)から 25日の 10時(UTC)まで徐々に
西/南西の風 12kt

TAF: LIRF 241100Z 2412/2518 26012KT CAVOK BECMG 2418/2420 VRB04KT TEMPO 2501/2505 4000 BR BECMG 2508/2510 25012KT

4,000以上の空港の気象観測と天気予報(METAR報とTAF報)

利用可能な観測所は地図上に黄色い丸と赤い丸で示す。

丸の上にカーソルを重ねると観測所名を参照できる。

次にクリックすると気象観測と天気予報を参照できる。

マップの切り替え:黒色「×」印の緑ボタンをクリックして拡大、「-」印の緑ボタンをクリックして縮小、緑色の三角印をクリックして隣りの地図に切り替え


METAR-TAF: